메인 페이지
METAR-TAF:

METAR-TAF

공항 :

몽고메리, 앨라배마, 미국

위도: 32-23N, 경도: 086-22W, 고도: 51m

현재 날씨관측

예보는 1 시간 5분 전, 06:56시(UTC)에 발표되었습니다.
서북서5kt
온도 9°C
습도 87%
기압 1013 hPa
시정: 16.1km
맑음

METAR: KMXF 010656Z AUTO 29005KT 10SM CLR 09/07 A2991 RMK AO2 SLP131 T00900071

시각: 03:01 (08:01 UTC)

예보

예보는 5 시간 9분 전, 02:52시(UTC)에 발표되었습니다.
예보 대상 시간: 01일 02시부터 02일 01시까지 (UTC)
서북서12kt, 순간 최대 풍속 18kt
시정 10km 이상
고도 3000ft 상공 구름 많음
전환 중
01일 03시부터 01일 04시까지 (UTC)
12kt
시정 10km 이상
고도 4000ft 상공 구름 보통
전환 중
01일 05시부터 01일 06시까지 (UTC)
북북서9kt
시정 10km 이상
고도 3000ft 상공 구름 조금
전환 중
01일 14시부터 01일 15시까지 (UTC)
10kt, 순간 최대 풍속 20kt
시정 10km 이상
맑음
전환 중
02일 00시부터 02일 01시까지 (UTC)
여러 방향의 바람 6kt
시정: 0111m
맑음

TAF: KMXF 010252Z 0102/0201 30012G18KT 9999 BKN030 QNH2963INS BECMG 0103/0104 35012KT 9999 SCT040 QNH2982INS BECMG 0105/0106 33009KT 9999 FEW030 510013 QNH2990INS BECMG 0114/0115 36010G20KT 9999 SKC QNH2995INS BECMG 0200/0201 VRB06KT 9999 SKC QNH2998INS TX22/0119Z TN07/0111Z LAST NO AMDS AFT 0103 NEXT 0111

4,000개 이상의 공항 관측 자료 및 예보 (METAR 및 TAF 보고).

지도상에서 검색 가능한 기상관측소가 노란 점과 빨간 점으로 표시되어 있습니다.

기상관측소 명을 보려면 표시 위로 마우스를 이동하세요.

날씨 관측과 예보를 보려면 클릭하세요.

지도 변경 : 확대하려면 엑스 표시가 있는 녹색 버튼, 축소하려면 빼기 표시가 있는 녹색 버튼, 다음 페이지의 지도를 보려면 녹색 화살표를 클릭하세요.


METAR-TAF: